Dawson Springs, Kentucky
Current Conditions -  °F | °C
As of 12:55 AM on Thursday 27 Nov 2014 (Local Time) from K2I0 Reporting Station
Light Rain Light Rain  
Wind Chill: 30°   Ceiling: 400
Heat Index: 35°   Visibility: 4mi
Dew Point: 35°   Wind: 6mph
Humidity: 100%   Direction: 330°NNW
Pressure: 30.12"   Gusts: NA
Location:  37.17°N, 87.69°W
Report Text: K2I0 270655Z AUTO 33005KT 4SM -RA OVC004 02/02 A3012 RMK AO2 T00160016
Loading
Personal Weather Stations






























Interactive Weather Map New forecast layout! Learn more

10-Day Weather Forecast

Advertisements
Track Severe Weather on mobile